Time;durP1;ratioP1;P1;durP2;ratioP2;P2;SDS_P1;SDS_P2;PMS_P1;PMS_P2;Temp;Humidity;BMP_temperature;BMP_pressure;BME280_temperature;BME280_humidity;BME280_pressure;Samples;Min_cycle;Max_cycle;Signal;HPM_P1;HPM_P2
2022/07/29 00:01:24;;;;;;;6.20;3.80;;;;;;;17.36;72.80;96967.88;108430;1267;22590;-87
2022/07/29 00:03:56;;;;;;;6.40;4.20;;;;;;;17.35;72.88;96970.18;108413;1268;22517;-86
2022/07/29 00:06:27;;;;;;;5.40;3.80;;;;;;;17.35;72.90;96972.02;108438;1267;24002;-87
2022/07/29 00:08:59;;;;;;;6.20;4.50;;;;;;;17.34;72.97;96966.52;108376;1267;32429;-87
2022/07/29 00:11:31;;;;;;;5.60;3.90;;;;;;;17.34;73.04;96965.14;108424;1267;23418;-87
2022/07/29 00:14:02;;;;;;;6.10;4.10;;;;;;;17.34;73.16;96963.30;108407;1268;22597;-87
2022/07/29 00:16:34;;;;;;;5.60;4.20;;;;;;;17.35;73.22;96963.98;108447;1267;23169;-87
2022/07/29 00:19:06;;;;;;;6.00;4.20;;;;;;;17.37;73.24;96960.38;108308;1269;33435;-87
2022/07/29 00:21:40;;;;;;;4.50;3.90;;;;;;;17.39;73.27;96963.12;108431;1268;22596;-87
2022/07/29 00:24:13;;;;;;;7.50;4.60;;;;;;;17.41;73.31;96960.70;108469;1268;22683;-87
2022/07/29 00:26:47;;;;;;;4.30;3.80;;;;;;;17.43;73.28;96962.33;108356;1268;33891;-86
2022/07/29 00:29:21;;;;;;;6.80;3.40;;;;;;;17.44;73.36;96965.84;108471;1268;22591;-87
2022/07/29 00:31:54;;;;;;;4.90;3.50;;;;;;;17.47;73.34;96962.61;108439;1267;22586;-87
2022/07/29 00:37:18;;;;;;;4.80;4.10;;;;;;;17.49;73.41;96963.02;108312;1269;35337;-87
2022/07/29 00:39:51;;;;;;;5.70;4.00;;;;;;;17.50;73.47;96957.91;108403;1270;22527;-87
2022/07/29 00:42:24;;;;;;;5.30;4.00;;;;;;;17.52;73.56;96954.85;108421;1270;22476;-87
2022/07/29 00:44:57;;;;;;;6.60;3.70;;;;;;;17.53;73.65;96954.59;108434;1270;25374;-87
2022/07/29 00:47:32;;;;;;;5.90;3.70;;;;;;;17.55;73.73;96950.30;108344;1270;26137;-88
2022/07/29 00:50:08;;;;;;;5.00;3.70;;;;;;;17.56;73.77;96951.05;108435;1270;24266;-86
2022/07/29 00:52:43;;;;;;;5.20;3.90;;;;;;;17.47;73.59;96954.30;108479;1269;22645;-87
2022/07/29 00:55:17;;;;;;;4.60;4.10;;;;;;;17.30;74.04;96952.85;108451;1270;22589;-87
2022/07/29 00:57:50;;;;;;;5.60;4.30;;;;;;;17.21;74.26;96954.29;108367;1270;35947;-87
2022/07/29 01:00:29;;;;;;;6.00;3.90;;;;;;;17.06;74.37;96951.79;108505;1269;22567;-87
2022/07/29 01:03:04;;;;;;;5.00;4.10;;;;;;;16.83;74.40;96953.70;108457;1270;22633;-87
2022/07/29 01:05:38;;;;;;;7.90;4.70;;;;;;;16.60;75.02;96951.20;108073;1270;400381;-87
2022/07/29 01:08:12;;;;;;;10.40;4.10;;;;;;;16.44;75.24;96951.06;108371;1268;28597;-87
2022/07/29 01:10:48;;;;;;;6.00;4.10;;;;;;;16.42;75.70;96946.62;108437;1270;22747;-87
2022/07/29 01:13:22;;;;;;;8.60;4.90;;;;;;;16.46;75.93;96948.55;108405;1269;23119;-87
2022/07/29 01:16:00;;;;;;;5.30;4.50;;;;;;;16.41;75.95;96944.95;108438;1267;22542;-87
2022/07/29 01:18:36;;;;;;;6.60;4.60;;;;;;;16.37;76.22;96943.55;108406;1270;29666;-87
2022/07/29 01:21:40;;;;;;;5.70;4.10;;;;;;;16.43;76.40;96939.58;108431;1270;22547;-91
2022/07/29 01:24:35;;;;;;;4.70;4.10;;;;;;;16.52;76.36;96941.55;108393;1270;22660;-88
2022/07/29 01:27:23;;;;;;;6.10;4.80;;;;;;;16.47;76.07;96946.75;108304;1270;31098;-87
2022/07/29 01:29:59;;;;;;;7.60;5.10;;;;;;;16.31;76.10;96939.79;108439;1269;24009;-87
2022/07/29 01:32:34;;;;;;;7.10;5.80;;;;;;;16.34;76.59;96934.79;108360;1270;25374;-86
2022/07/29 01:35:12;;;;;;;7.30;5.20;;;;;;;16.19;77.07;96932.78;108402;1267;22736;-86
2022/07/29 01:37:51;;;;;;;6.70;4.40;;;;;;;16.01;77.69;96931.44;108320;1270;25487;-88
2022/07/29 01:40:28;;;;;;;7.70;5.30;;;;;;;15.99;77.82;96928.66;108441;1267;23243;-88
2022/07/29 01:43:05;;;;;;;8.80;5.80;;;;;;;15.95;77.77;96929.30;108399;1270;22548;-87
2022/07/29 01:45:41;;;;;;;6.60;5.00;;;;;;;16.00;77.69;96927.08;108432;1268;22581;-87
2022/07/29 01:48:17;;;;;;;7.00;5.40;;;;;;;16.00;77.73;96928.13;108412;1267;25274;-87
2022/07/29 01:50:57;;;;;;;8.00;4.90;;;;;;;15.97;78.01;96928.17;108411;1268;22543;-87
2022/07/29 01:53:33;;;;;;;7.40;5.70;;;;;;;15.93;78.20;96928.86;108320;1270;22990;-87
2022/07/29 01:56:07;;;;;;;6.30;5.50;;;;;;;15.85;78.50;96932.69;108313;1270;22694;-87
2022/07/29 01:58:42;;;;;;;8.10;6.20;;;;;;;15.78;78.52;96934.41;108262;1270;40368;-86
2022/07/29 02:01:17;;;;;;;6.70;5.80;;;;;;;15.79;78.53;96934.66;108310;1270;22701;-87
2022/07/29 02:03:51;;;;;;;6.30;5.10;;;;;;;15.75;78.41;96931.80;108274;1270;25410;-87
2022/07/29 02:06:25;;;;;;;7.20;5.00;;;;;;;15.76;78.39;96935.35;108314;1270;22574;-87
2022/07/29 02:08:58;;;;;;;7.00;4.90;;;;;;;15.84;78.55;96939.34;108160;1270;63954;-87
2022/07/29 02:11:31;;;;;;;7.60;5.40;;;;;;;15.90;78.33;96926.80;108249;1270;25384;-87
2022/07/29 02:14:04;;;;;;;9.00;5.80;;;;;;;15.84;78.46;96929.55;108311;1270;22551;-88
2022/07/29 02:16:40;;;;;;;6.30;5.50;;;;;;;15.68;78.53;96934.20;108275;1270;22479;-87
2022/07/29 02:19:13;;;;;;;6.90;5.40;;;;;;;15.62;78.86;96932.31;108342;1270;23555;-87
2022/07/29 02:21:48;;;;;;;4.80;4.30;;;;;;;15.50;78.99;96927.54;108342;1270;22612;-87
2022/07/29 02:24:22;;;;;;;9.80;5.20;;;;;;;15.51;79.13;96923.46;108246;1270;22572;-87
2022/07/29 02:26:56;;;;;;;5.80;5.20;;;;;;;15.47;79.14;96921.71;108203;1270;31664;-87
2022/07/29 02:29:30;;;;;;;6.40;5.20;;;;;;;15.44;79.00;96923.58;108300;1270;24099;-87
2022/07/29 02:32:02;;;;;;;7.50;5.60;;;;;;;15.49;79.06;96918.10;108250;1270;22584;-87
2022/07/29 02:34:35;;;;;;;6.80;4.90;;;;;;;15.47;78.90;96916.48;108304;1270;23440;-86
2022/07/29 02:37:10;;;;;;;5.90;5.00;;;;;;;15.46;78.90;96912.12;107995;1270;155770;-87
2022/07/29 02:39:45;;;;;;;6.80;4.90;;;;;;;15.39;79.00;96916.20;108217;1271;22546;-87
2022/07/29 02:42:19;;;;;;;7.30;5.50;;;;;;;15.34;79.37;96916.71;108278;1269;25256;-87
2022/07/29 02:44:51;;;;;;;7.30;5.20;;;;;;;15.37;79.71;96912.70;108292;1270;22568;-86
2022/07/29 02:47:29;;;;;;;6.30;5.60;;;;;;;15.43;79.64;96912.77;108228;1270;71458;-87
2022/07/29 02:50:08;;;;;;;5.80;5.10;;;;;;;15.48;79.67;96911.70;108372;1268;23204;-87
2022/07/29 02:52:48;;;;;;;6.90;4.90;;;;;;;15.44;79.50;96908.24;108475;1267;24199;-87
2022/07/29 02:55:26;;;;;;;7.90;4.90;;;;;;;15.45;79.66;96907.27;108480;1267;22581;-87
2022/07/29 02:58:02;;;;;;;6.10;4.60;;;;;;;15.47;79.73;96905.64;108402;1265;32134;-87
2022/07/29 03:00:37;;;;;;;5.80;4.70;;;;;;;15.53;79.81;96905.66;108455;1267;24134;-87
2022/07/29 03:03:13;;;;;;;6.50;5.20;;;;;;;15.57;79.75;96901.62;108428;1267;22531;-88
2022/07/29 03:05:44;;;;;;;5.90;5.00;;;;;;;15.60;79.62;96905.02;108403;1267;22540;-87
2022/07/29 03:08:17;;;;;;;8.30;5.20;;;;;;;15.62;79.53;96907.79;108411;1267;32355;-88
2022/07/29 03:10:53;;;;;;;7.00;4.50;;;;;;;15.60;79.47;96906.04;108460;1267;22941;-87
2022/07/29 03:13:26;;;;;;;6.80;5.30;;;;;;;15.56;79.13;96904.15;108480;1267;25256;-87
2022/07/29 03:15:59;;;;;;;6.10;4.90;;;;;;;15.50;79.18;96900.92;108429;1267;22526;-87
2022/07/29 03:18:31;;;;;;;7.40;5.20;;;;;;;15.48;79.27;96895.23;108357;1267;29634;-87
2022/07/29 03:21:03;;;;;;;8.80;6.20;;;;;;;15.52;79.41;96894.46;108457;1267;25276;-87
2022/07/29 03:23:35;;;;;;;6.20;5.60;;;;;;;15.55;79.23;96891.39;108457;1267;24241;-87
2022/07/29 03:26:06;;;;;;;7.60;5.10;;;;;;;15.58;79.22;96892.60;108369;1270;22571;-87
2022/07/29 03:28:37;;;;;;;7.00;4.70;;;;;;;15.58;79.17;96891.23;108361;1267;29491;-88
2022/07/29 03:31:08;;;;;;;5.60;4.70;;;;;;;15.62;79.17;96890.84;108519;1267;22553;-88
2022/07/29 03:33:39;;;;;;;6.20;4.40;;;;;;;15.62;78.98;96895.64;108499;1267;22552;-88
2022/07/29 03:36:10;;;;;;;6.30;4.90;;;;;;;15.65;78.75;96896.98;108520;1267;25370;-88
2022/07/29 03:38:45;;;;;;;6.60;5.70;;;;;;;15.67;78.75;96895.58;108398;1267;26074;-88
2022/07/29 03:41:18;;;;;;;5.30;4.80;;;;;;;15.73;78.75;96894.02;108381;1270;22564;-87
2022/07/29 03:43:50;;;;;;;7.40;4.70;;;;;;;15.79;78.76;96891.20;108424;1267;22584;-87
2022/07/29 03:46:24;;;;;;;5.70;5.00;;;;;;;15.83;78.72;96898.52;108442;1267;22550;-88
2022/07/29 03:49:00;;;;;;;6.80;5.00;;;;;;;15.87;78.62;96900.45;108382;1267;24758;-88
2022/07/29 03:51:32;;;;;;;7.80;5.30;;;;;;;15.90;78.71;96903.95;108506;1267;22555;-87
2022/07/29 03:54:04;;;;;;;7.20;5.30;;;;;;;15.90;78.85;96908.12;108461;1265;24263;-87
2022/07/29 03:56:39;;;;;;;5.90;4.70;;;;;;;15.95;78.91;96906.77;108513;1267;24224;-88
2022/07/29 03:59:11;;;;;;;5.40;4.60;;;;;;;16.01;78.74;96906.39;108496;1267;22490;-88
2022/07/29 04:01:44;;;;;;;6.20;4.10;;;;;;;16.09;78.73;96909.70;108513;1267;22590;-88
2022/07/29 04:04:16;;;;;;;5.60;4.40;;;;;;;16.16;78.76;96914.44;108623;1266;22541;-88
2022/07/29 04:06:49;;;;;;;6.70;5.30;;;;;;;16.17;78.70;96918.78;108424;1267;31644;-89
2022/07/29 04:09:20;;;;;;;6.90;4.60;;;;;;;16.23;79.07;96914.15;108428;1267;22535;-89
2022/07/29 04:11:51;;;;;;;6.60;5.60;;;;;;;16.35;79.25;96913.04;108467;1267;22534;-88
2022/07/29 04:14:22;;;;;;;6.30;4.60;;;;;;;16.51;79.30;96908.17;108413;1267;22557;-89
2022/07/29 04:16:57;;;;;;;5.70;4.60;;;;;;;16.69;79.26;96910.23;108373;1267;32323;-89
2022/07/29 04:19:28;;;;;;;6.90;4.60;;;;;;;16.84;78.94;96910.58;108515;1267;22536;-88
2022/07/29 04:22:00;;;;;;;6.20;4.90;;;;;;;16.97;78.87;96903.92;108521;1267;22588;-88
2022/07/29 04:24:32;;;;;;;8.10;5.20;;;;;;;17.07;78.63;96906.55;108542;1267;22661;-88
2022/07/29 04:27:03;;;;;;;6.70;5.20;;;;;;;17.16;78.46;96906.48;108433;1267;45853;-88
2022/07/29 04:29:34;;;;;;;6.30;4.70;;;;;;;17.23;78.41;96905.44;108527;1267;23047;-88
2022/07/29 04:32:06;;;;;;;5.80;4.70;;;;;;;17.29;78.10;96906.09;108578;1267;25369;-88
2022/07/29 04:34:37;;;;;;;6.10;4.60;;;;;;;17.37;77.87;96903.31;108468;1267;22540;-88
2022/07/29 04:37:08;;;;;;;8.50;5.00;;;;;;;17.46;77.84;96906.82;108466;1267;34272;-88
2022/07/29 04:39:39;;;;;;;6.40;5.00;;;;;;;17.59;77.64;96903.31;108509;1267;24266;-88
2022/07/29 04:42:10;;;;;;;8.90;5.00;;;;;;;17.75;77.79;96905.79;108536;1266;22637;-88
2022/07/29 04:44:41;;;;;;;6.40;4.70;;;;;;;17.98;77.96;96903.05;108517;1267;22836;-88
2022/07/29 04:47:12;;;;;;;8.50;4.40;;;;;;;18.22;77.68;96906.06;108448;1267;29204;-88
2022/07/29 04:49:44;;;;;;;8.30;4.50;;;;;;;18.50;77.33;96902.50;108506;1267;25828;-88
2022/07/29 04:52:15;;;;;;;5.00;4.50;;;;;;;18.83;77.07;96903.11;108513;1267;22674;-88
2022/07/29 04:54:47;;;;;;;5.30;4.50;;;;;;;19.13;76.69;96897.82;108429;1267;24215;-88
2022/07/29 04:57:18;;;;;;;5.80;4.90;;;;;;;19.41;76.24;96898.64;108420;1267;28540;-88
2022/07/29 04:59:49;;;;;;;4.90;4.20;;;;;;;19.73;75.77;96901.72;108491;1267;22568;-88
2022/07/29 05:02:21;;;;;;;6.30;4.50;;;;;;;20.12;74.50;96893.04;108513;1267;24201;-88
2022/07/29 05:04:53;;;;;;;5.60;5.00;;;;;;;20.79;74.44;96893.27;108610;1267;25248;-88
2022/07/29 05:07:24;;;;;;;4.50;4.10;;;;;;;21.19;71.71;96894.35;108442;1267;25360;-88
2022/07/29 05:09:56;;;;;;;6.50;4.10;;;;;;;20.94;70.76;96901.20;108438;1267;25287;-88
2022/07/29 05:12:28;;;;;;;5.50;4.20;;;;;;;20.76;70.81;96906.44;108414;1267;25254;-88
2022/07/29 05:14:59;;;;;;;4.30;3.80;;;;;;;21.63;71.78;96899.11;108421;1270;24204;-87
2022/07/29 05:17:30;;;;;;;4.80;3.80;;;;;;;21.71;68.75;96893.71;108416;1267;27212;-87
2022/07/29 05:20:01;;;;;;;6.10;3.90;;;;;;;21.19;67.88;96893.27;108529;1267;22641;-88
2022/07/29 05:22:32;;;;;;;6.20;4.40;;;;;;;20.75;68.54;96896.02;108488;1267;22596;-80
2022/07/29 05:25:04;;;;;;;5.30;3.90;;;;;;;20.63;69.10;96896.00;108515;1267;23474;-80
2022/07/29 05:27:35;;;;;;;6.20;4.30;;;;;;;20.60;69.17;96894.43;108389;1267;41176;-80
2022/07/29 05:30:07;;;;;;;5.10;4.30;;;;;;;20.67;69.44;96892.59;108447;1267;25235;-80
2022/07/29 05:32:38;;;;;;;6.40;5.00;;;;;;;21.32;69.32;96892.61;108459;1267;22522;-80
2022/07/29 05:35:11;;;;;;;5.50;4.50;;;;;;;21.53;68.49;96892.08;108428;1265;24205;-81
2022/07/29 05:37:42;;;;;;;5.00;4.20;;;;;;;21.62;67.62;96889.23;108386;1268;30595;-80
2022/07/29 05:40:14;;;;;;;6.40;4.50;;;;;;;22.28;68.03;96896.58;108387;1267;23301;-80
2022/07/29 05:42:45;;;;;;;5.80;4.40;;;;;;;23.01;66.58;96892.74;108429;1267;23373;-80
2022/07/29 05:45:17;;;;;;;4.70;4.10;;;;;;;23.80;65.56;96887.86;108450;1267;22531;-80
2022/07/29 05:47:48;;;;;;;5.70;3.80;;;;;;;25.45;64.05;96880.13;108326;1267;41724;-80
2022/07/29 05:50:19;;;;;;;5.40;3.50;;;;;;;27.57;61.84;96872.25;108420;1267;22566;-80
2022/07/29 05:52:53;;;;;;;6.10;3.70;;;;;;;29.49;57.85;96870.36;108432;1267;24613;-80
2022/07/29 05:55:24;;;;;;;5.10;3.60;;;;;;;30.98;53.23;96875.20;108415;1267;22678;-80
2022/07/29 05:57:56;;;;;;;4.70;3.10;;;;;;;32.09;51.11;96878.51;108307;1267;38715;-80
2022/07/29 06:00:27;;;;;;;3.60;2.90;;;;;;;33.27;48.40;96876.58;108392;1267;22691;-80
2022/07/29 06:02:59;;;;;;;5.80;3.00;;;;;;;34.31;46.52;96878.80;108406;1267;22562;-80
2022/07/29 06:05:30;;;;;;;6.80;3.50;;;;;;;35.05;43.53;96880.69;108410;1268;23326;-80
2022/07/29 06:08:02;;;;;;;4.10;3.20;;;;;;;35.46;41.12;96885.06;108283;1270;30931;-81
2022/07/29 06:10:34;;;;;;;3.10;2.80;;;;;;;35.48;40.58;96885.79;108349;1270;22668;-81
2022/07/29 06:13:05;;;;;;;4.40;2.80;;;;;;;36.09;37.89;96885.80;108409;1267;22531;-82
2022/07/29 06:15:37;;;;;;;6.30;2.70;;;;;;;35.57;37.82;96885.86;108377;1270;22651;-81
2022/07/29 06:18:10;;;;;;;3.80;2.50;;;;;;;35.72;35.75;96888.11;108323;1267;43205;-81
2022/07/29 06:20:42;;;;;;;3.20;2.70;;;;;;;36.62;37.16;96890.86;108522;1267;22620;-82
2022/07/29 06:23:13;;;;;;;5.30;2.90;;;;;;;37.34;34.30;96882.66;108416;1267;22524;-81
2022/07/29 06:25:45;;;;;;;3.80;2.70;;;;;;;37.20;34.92;96886.05;108478;1265;22526;-80
2022/07/29 06:28:18;;;;;;;6.10;3.00;;;;;;;37.96;34.26;96888.26;108481;1267;42527;-79
2022/07/29 06:30:49;;;;;;;6.70;2.70;;;;;;;38.86;33.88;96886.35;108498;1267;23426;-80
2022/07/29 06:33:21;;;;;;;4.10;3.10;;;;;;;39.10;33.38;96883.35;108521;1265;22538;-81
2022/07/29 06:35:58;;;;;;;3.80;2.50;;;;;;;39.98;32.72;96888.79;108564;1267;23491;-81
2022/07/29 06:38:29;;;;;;;5.10;3.00;;;;;;;40.81;30.27;96886.85;108494;1267;37101;-81
2022/07/29 06:41:03;;;;;;;2.90;2.60;;;;;;;40.90;30.78;96887.08;108484;1267;24287;-80
2022/07/29 06:43:43;;;;;;;4.50;2.70;;;;;;;41.13;29.09;96887.04;108466;1266;24256;-81
2022/07/29 06:46:17;;;;;;;5.70;3.00;;;;;;;41.38;29.17;96885.63;108593;1267;24230;-80
2022/07/29 06:48:55;;;;;;;3.00;2.70;;;;;;;41.95;29.11;96885.36;108482;1267;28892;-80
2022/07/29 06:51:30;;;;;;;3.10;2.50;;;;;;;42.67;28.12;96884.59;108512;1267;24209;-80
2022/07/29 06:54:05;;;;;;;2.60;2.30;;;;;;;43.11;27.72;96882.08;108523;1267;23113;-80
2022/07/29 06:56:41;;;;;;;3.00;2.30;;;;;;;43.63;27.01;96884.00;108435;1267;22891;-81
2022/07/29 06:59:17;;;;;;;3.20;2.70;;;;;;;44.11;26.21;96881.58;108480;1267;22653;-80
2022/07/29 07:01:55;;;;;;;4.60;2.60;;;;;;;43.69;25.54;96881.88;108506;1267;22547;-82
2022/07/29 07:04:30;;;;;;;4.00;2.20;;;;;;;44.09;25.71;96884.82;108540;1267;22547;-82
2022/07/29 07:07:09;;;;;;;4.60;2.60;;;;;;;44.70;25.30;96884.20;108477;1267;37402;-83
2022/07/29 07:09:47;;;;;;;4.00;2.40;;;;;;;45.10;24.57;96891.44;108578;1267;22597;-82
2022/07/29 07:12:22;;;;;;;2.70;2.20;;;;;;;45.03;23.79;96896.33;108440;1267;22686;-82
2022/07/29 07:14:58;;;;;;;2.40;2.20;;;;;;;44.22;23.27;96890.64;108532;1267;22535;-82
2022/07/29 07:17:30;;;;;;;2.70;2.10;;;;;;;43.62;24.08;96890.04;108461;1268;25131;-83
2022/07/29 07:20:02;;;;;;;2.90;2.10;;;;;;;44.54;24.21;96890.54;108422;1267;22649;-83
2022/07/29 07:22:34;;;;;;;3.50;2.30;;;;;;;44.39;22.61;96890.58;108379;1267;22615;-80
2022/07/29 07:25:10;;;;;;;3.20;2.10;;;;;;;44.36;23.45;96893.36;108377;1267;23308;-80
2022/07/29 07:27:42;;;;;;;5.30;2.40;;;;;;;44.89;23.26;96892.15;108350;1267;23279;-79
2022/07/29 07:30:15;;;;;;;4.30;2.40;;;;;;;44.74;22.81;96892.27;108352;1267;22529;-80
2022/07/29 07:32:46;;;;;;;6.00;2.20;;;;;;;45.10;22.81;96892.60;108393;1267;25375;-80
2022/07/29 07:35:18;;;;;;;2.60;2.30;;;;;;;45.53;22.74;96891.70;108350;1267;25099;-79
2022/07/29 07:37:52;;;;;;;6.20;2.30;;;;;;;45.58;22.42;96892.27;108341;1267;27828;-81
2022/07/29 07:40:24;;;;;;;3.60;2.30;;;;;;;46.13;22.24;96894.45;108434;1267;23568;-80
2022/07/29 07:43:00;;;;;;;3.30;2.50;;;;;;;46.59;21.82;96892.17;108537;1267;22597;-81
2022/07/29 07:45:45;;;;;;;3.10;2.40;;;;;;;47.29;21.40;96889.89;108467;1265;22724;-82
2022/07/29 07:48:21;;;;;;;2.30;2.10;;;;;;;47.86;21.08;96886.77;108459;1267;25863;-81
2022/07/29 07:50:55;;;;;;;2.50;2.30;;;;;;;48.09;20.70;96883.48;108467;1267;23772;-81
2022/07/29 07:53:27;;;;;;;3.60;2.10;;;;;;;48.26;20.56;96882.48;108476;1267;22656;-82
2022/07/29 07:56:00;;;;;;;2.30;2.10;;;;;;;48.19;20.48;96885.35;108602;1267;22525;-82
2022/07/29 07:58:35;;;;;;;4.40;2.50;;;;;;;48.36;19.36;96884.08;108671;1267;29340;-81
2022/07/29 08:01:10;;;;;;;3.90;2.40;;;;;;;47.48;19.64;96885.86;108591;1267;22545;-82
2022/07/29 08:03:47;;;;;;;4.20;2.40;;;;;;;47.32;20.12;96885.42;108554;1267;22560;-84
2022/07/29 08:06:19;;;;;;;5.10;2.40;;;;;;;47.52;19.71;96881.81;108475;1267;22541;-82
2022/07/29 08:08:54;;;;;;;2.60;2.30;;;;;;;47.46;19.94;96883.38;108454;1267;34673;-85
2022/07/29 08:11:32;;;;;;;4.30;2.40;;;;;;;46.91;19.65;96885.41;108489;1267;22705;-85
2022/07/29 08:14:08;;;;;;;2.90;2.60;;;;;;;46.68;19.74;96884.27;108513;1267;23608;-85
2022/07/29 08:16:43;;;;;;;2.90;2.70;;;;;;;46.49;20.21;96884.09;108559;1267;22789;-83
2022/07/29 08:19:17;;;;;;;2.90;2.20;;;;;;;46.17;19.65;96882.66;108490;1268;22638;-84
2022/07/29 08:21:53;;;;;;;2.90;2.60;;;;;;;45.82;20.34;96881.98;108657;1267;22589;-84
2022/07/29 08:24:52;;;;;;;3.80;2.90;;;;;;;46.30;20.46;96888.53;108547;1266;22562;-84
2022/07/29 08:27:30;;;;;;;3.80;2.70;;;;;;;47.32;20.21;96882.27;108482;1267;36313;-84
2022/07/29 08:30:10;;;;;;;3.30;2.60;;;;;;;47.50;19.50;96877.85;108470;1267;22541;-83
2022/07/29 08:32:44;;;;;;;2.90;2.60;;;;;;;47.49;19.56;96881.67;108553;1267;22526;-82
2022/07/29 08:35:18;;;;;;;2.80;2.60;;;;;;;47.37;19.66;96884.29;108480;1267;22560;-82
2022/07/29 08:37:53;;;;;;;3.50;2.50;;;;;;;47.32;19.41;96882.52;108408;1267;49313;-81
2022/07/29 08:40:27;;;;;;;4.00;2.40;;;;;;;47.45;19.45;96879.59;108522;1267;22513;-80
2022/07/29 08:43:03;;;;;;;3.80;2.70;;;;;;;47.29;19.52;96875.43;108463;1267;24424;-80
2022/07/29 08:45:47;;;;;;;2.90;2.30;;;;;;;46.22;19.18;96879.60;108569;1267;22551;-79
2022/07/29 08:48:21;;;;;;;4.10;2.60;;;;;;;45.34;19.76;96882.41;108493;1267;36480;-80
2022/07/29 08:50:59;;;;;;;4.70;2.80;;;;;;;45.02;20.67;96883.30;108528;1270;22564;-80
2022/07/29 08:53:30;;;;;;;;;;;;;;;45.70;20.74;96880.58;108463;1267;22543;-80
2022/07/29 08:56:06;;;;;;;3.30;2.30;;;;;;;46.33;20.63;96875.33;108441;1268;23986;-79
2022/07/29 08:58:38;;;;;;;3.80;2.50;;;;;;;46.93;20.20;96876.85;108476;1267;27182;-79
2022/07/29 09:01:11;;;;;;;4.70;2.50;;;;;;;47.08;19.60;96874.20;108567;1267;23889;-79
2022/07/29 09:03:45;;;;;;;3.40;2.70;;;;;;;47.34;19.95;96877.20;108541;1267;25378;-79
2022/07/29 09:06:19;;;;;;;4.10;2.60;;;;;;;47.71;19.55;96872.10;108572;1267;22709;-79
2022/07/29 09:08:50;;;;;;;3.30;2.70;;;;;;;47.62;19.12;96871.07;108521;1267;24838;-78
2022/07/29 09:11:22;;;;;;;8.50;2.70;;;;;;;46.66;18.99;96871.57;108453;1270;23307;-79
2022/07/29 09:13:53;;;;;;;5.50;2.60;;;;;;;45.95;19.82;96872.72;108491;1267;24984;-79
2022/07/29 09:16:24;;;;;;;4.60;2.90;;;;;;;44.86;19.70;96868.48;108445;1268;22653;-80
2022/07/29 09:18:55;;;;;;;6.10;2.80;;;;;;;41.31;21.50;96862.92;108428;1267;28294;-78
2022/07/29 09:22:15;;;;;;;4.30;2.80;;;;;;;39.02;24.04;96853.65;108446;1267;22620;-80
2022/07/29 09:24:50;;;;;;;4.00;2.70;;;;;;;37.17;25.85;96859.83;108429;1267;22660;-81
2022/07/29 09:27:28;;;;;;;6.80;3.20;;;;;;;36.07;27.22;96861.33;108325;1267;106009;-81
2022/07/29 09:30:05;;;;;;;5.50;3.20;;;;;;;35.36;28.22;96860.26;108550;1267;22876;-82
2022/07/29 09:32:57;;;;;;;4.70;3.40;;;;;;;33.26;30.18;96862.27;108658;1267;22622;-82
2022/07/29 09:35:30;;;;;;;6.30;3.50;;;;;;;31.32;32.38;96861.41;108514;1267;22558;-82
2022/07/29 09:38:13;;;;;;;3.90;3.00;;;;;;;30.62;34.01;96854.95;108563;1267;38982;-80
2022/07/29 09:40:56;;;;;;;5.60;3.90;;;;;;;30.32;35.11;96852.65;108555;1267;22739;-82
2022/07/29 09:43:29;;;;;;;5.40;3.50;;;;;;;29.54;36.64;96852.88;108499;1268;23279;-82
2022/07/29 09:46:13;;;;;;;4.50;3.30;;;;;;;29.01;38.57;96850.05;108467;1267;22523;-81
2022/07/29 09:48:44;;;;;;;5.00;3.70;;;;;;;29.29;38.62;96845.45;106660;1268;2113160;-81
2022/07/29 09:55:13;;;;;;;5.20;3.80;;;;;;;28.98;39.79;96839.30;108013;1270;25036;-82
2022/07/29 09:57:51;;;;;;;6.40;4.30;;;;;;;28.94;39.90;96843.35;108288;1267;124482;-81
2022/07/29 10:00:28;;;;;;;4.30;3.80;;;;;;;28.43;40.85;96840.39;108493;1267;23843;-78
2022/07/29 10:03:06;;;;;;;4.30;3.60;;;;;;;28.11;41.93;96842.83;108481;1267;23268;-79
2022/07/29 10:05:41;;;;;;;6.20;4.40;;;;;;;27.65;42.24;96844.56;108498;1267;23300;-81
2022/07/29 10:08:34;;;;;;;7.80;3.90;;;;;;;27.36;42.60;96843.73;108383;1268;62598;-83
2022/07/29 10:11:20;;;;;;;4.50;3.60;;;;;;;27.46;42.09;96842.14;108500;1268;22644;-80
2022/07/29 10:13:54;;;;;;;4.90;4.40;;;;;;;27.46;42.47;96838.02;108473;1267;22554;-80
2022/07/29 10:16:32;;;;;;;5.20;4.10;;;;;;;27.63;42.81;96836.08;108491;1268;22676;-80
2022/07/29 10:19:11;;;;;;;6.40;4.60;;;;;;;27.58;43.24;96836.28;108507;1268;32355;-80
2022/07/29 10:21:44;;;;;;;4.70;4.00;;;;;;;27.91;43.32;96834.30;108587;1268;24239;-80
2022/07/29 10:24:19;;;;;;;5.30;4.30;;;;;;;27.59;43.25;96837.30;108549;1268;23797;-79
2022/07/29 10:26:56;;;;;;;5.40;3.90;;;;;;;27.48;43.99;96832.04;108506;1268;35580;-79
2022/07/29 10:29:32;;;;;;;5.50;3.90;;;;;;;27.84;43.43;96829.62;108481;1267;24357;-81
2022/07/29 10:32:18;;;;;;;5.60;4.20;;;;;;;27.58;43.73;96830.21;108514;1268;23808;-79
2022/07/29 10:35:13;;;;;;;6.40;4.50;;;;;;;27.07;44.27;96828.80;108565;1268;22578;-80
2022/07/29 10:38:05;;;;;;;6.00;4.20;;;;;;;26.89;45.01;96827.96;108520;1267;33278;-80
2022/07/29 10:43:51;;;;;;;5.10;4.10;;;;;;;26.88;45.16;96825.86;108530;1268;22552;-80
2022/07/29 10:46:27;;;;;;;5.30;4.10;;;;;;;26.60;46.11;96826.76;108472;1267;22593;-78
2022/07/29 10:49:18;;;;;;;4.30;3.90;;;;;;;26.45;46.29;96831.30;108495;1268;41142;-79
2022/07/29 10:51:59;;;;;;;5.90;4.30;;;;;;;26.24;46.40;96827.37;108565;1268;22540;-79
2022/07/29 10:54:44;;;;;;;6.50;4.10;;;;;;;26.08;47.13;96827.68;108526;1268;22602;-80
2022/07/29 10:57:29;;;;;;;5.40;4.30;;;;;;;26.10;47.21;96825.45;108446;1268;38992;-80
2022/07/29 11:00:33;;;;;;;7.60;4.30;;;;;;;26.46;47.73;96827.42;108554;1267;24225;-80
2022/07/29 11:03:07;;;;;;;6.70;4.20;;;;;;;26.83;47.13;96826.77;108503;1268;22677;-79
2022/07/29 11:05:59;;;;;;;5.00;3.80;;;;;;;27.24;47.33;96820.73;108617;1268;23405;-81
2022/07/29 11:08:30;;;;;;;;;;;;;;;27.55;46.64;96815.33;108408;1268;107591;-80
2022/07/29 11:11:33;;;;;;;6.60;3.70;;;;;;;27.77;46.15;96809.82;108576;1268;22694;-80
2022/07/29 11:14:10;;;;;;;4.30;3.90;;;;;;;27.90;45.20;96804.95;108590;1268;22653;-81
2022/07/29 11:17:04;;;;;;;4.20;3.80;;;;;;;27.90;44.51;96802.38;108616;1268;22576;-80
2022/07/29 11:19:41;;;;;;;5.80;4.00;;;;;;;27.78;44.70;96801.11;108528;1271;22539;-80
2022/07/29 11:22:32;;;;;;;4.70;3.80;;;;;;;27.93;44.31;96799.27;108578;1267;22681;-81
2022/07/29 11:25:22;;;;;;;6.50;4.20;;;;;;;28.04;44.27;96796.09;108604;1268;22552;-81
2022/07/29 11:28:12;;;;;;;4.70;3.50;;;;;;;28.33;44.90;96788.81;107226;1267;1783025;-80
2022/07/29 11:30:56;;;;;;;4.90;3.60;;;;;;;28.44;43.49;96794.11;108535;1267;25312;-79
2022/07/29 11:33:37;;;;;;;4.90;3.80;;;;;;;28.12;43.80;96789.25;108558;1268;22711;-83
2022/07/29 11:36:18;;;;;;;4.20;3.60;;;;;;;27.87;44.71;96788.29;108574;1268;23305;-84
2022/07/29 11:38:52;;;;;;;4.10;3.30;;;;;;;28.09;44.54;96781.92;108391;1268;102699;-83
2022/07/29 11:41:26;;;;;;;4.80;3.30;;;;;;;28.27;44.57;96776.19;108512;1268;22654;-83
2022/07/29 11:44:00;;;;;;;4.50;3.50;;;;;;;28.48;44.36;96774.87;108614;1267;22680;-81
2022/07/29 11:46:51;;;;;;;5.80;3.60;;;;;;;28.45;43.93;96777.21;108574;1268;22533;-83
2022/07/29 11:49:28;;;;;;;5.00;3.60;;;;;;;28.31;43.83;96773.95;108623;1268;22584;-83
2022/07/29 11:52:02;;;;;;;7.10;3.40;;;;;;;28.38;44.63;96770.35;108559;1268;22782;-80
2022/07/29 11:54:39;;;;;;;5.10;3.90;;;;;;;28.55;43.93;96768.46;108560;1268;22603;-80
2022/07/29 11:57:11;;;;;;;6.60;3.70;;;;;;;28.38;43.79;96767.55;108507;1268;35263;-80
2022/07/29 11:59:48;;;;;;;7.80;4.80;;;;;;;28.42;44.20;96760.92;108603;1266;22561;-85
2022/07/29 12:02:49;;;;;;;5.00;3.80;;;;;;;28.67;44.39;96764.70;108586;1268;22555;-87
2022/07/29 12:05:22;;;;;;;4.40;3.50;;;;;;;28.77;43.28;96760.01;108502;1265;23838;-87
2022/07/29 12:07:54;;;;;;;7.50;3.70;;;;;;;28.35;42.31;96764.34;108302;1268;145167;-85
2022/07/29 12:10:33;;;;;;;6.90;3.50;;;;;;;28.21;44.11;96759.66;108524;1268;22754;-85
2022/07/29 12:13:06;;;;;;;5.10;3.40;;;;;;;28.46;43.44;96758.98;108599;1268;22496;-87